createdAt,value
2023-03-03T00:01:04.745Z,136.50
2023-03-03T00:03:32.785Z,151.10
2023-03-03T00:06:00.628Z,130.83
2023-03-03T00:08:28.408Z,151.43
2023-03-03T00:10:56.123Z,103.43
2023-03-03T00:13:27.056Z,122.77
2023-03-03T00:15:55.604Z,97.00
2023-03-03T00:18:28.032Z,101.83
2023-03-03T00:20:57.102Z,122.50
2023-03-03T00:23:30.386Z,87.43
2023-03-03T00:25:59.561Z,97.80
2023-03-03T00:28:30.802Z,79.00
2023-03-03T00:31:00.799Z,90.57
2023-03-03T00:33:32.568Z,126.53
2023-03-03T00:36:12.796Z,75.03
2023-03-03T00:38:40.993Z,74.67
2023-03-03T00:41:16.120Z,70.57
2023-03-03T00:43:45.161Z,64.17
2023-03-03T00:46:17.510Z,72.63
2023-03-03T00:48:45.239Z,70.80
2023-03-03T00:51:23.195Z,61.53
2023-03-03T00:53:51.524Z,101.23
2023-03-03T00:56:19.226Z,104.27
2023-03-03T00:58:48.587Z,98.70
2023-03-03T01:01:20.043Z,83.27
2023-03-03T01:03:52.439Z,83.93
2023-03-03T01:06:20.793Z,104.77
2023-03-03T01:08:48.897Z,92.37
2023-03-03T01:11:18.893Z,101.77
2023-03-03T01:13:49.259Z,99.60
2023-03-03T01:16:17.066Z,98.87
2023-03-03T01:18:44.895Z,96.93
2023-03-03T01:21:13.106Z,76.90
2023-03-03T01:23:41.363Z,107.13
2023-03-03T01:26:09.560Z,79.27
2023-03-03T01:28:37.225Z,94.43
2023-03-03T01:31:06.926Z,121.40
2023-03-03T01:33:35.822Z,137.03
2023-03-03T01:36:04.346Z,108.57
2023-03-03T01:38:32.022Z,94.23
2023-03-03T01:41:00.887Z,108.50
2023-03-03T01:43:31.019Z,78.03
2023-03-03T01:46:33.471Z,128.80
2023-03-03T01:49:04.603Z,76.03
2023-03-03T01:51:34.189Z,82.40
2023-03-03T01:54:03.304Z,84.60
2023-03-03T01:56:31.534Z,86.17
2023-03-03T01:59:01.889Z,57.83
2023-03-03T02:01:30.546Z,65.20
2023-03-03T02:04:01.527Z,86.63
2023-03-03T02:06:32.190Z,82.63
2023-03-03T02:09:01.644Z,91.30
2023-03-03T02:11:31.281Z,75.57
2023-03-03T02:14:00.118Z,77.13
2023-03-03T02:16:28.083Z,88.50
2023-03-03T02:18:56.350Z,73.40
2023-03-03T02:21:27.662Z,97.07
2023-03-03T02:24:02.710Z,76.40
2023-03-03T02:26:34.283Z,72.20
2023-03-03T02:29:07.456Z,73.03
2023-03-03T02:31:35.789Z,84.60
2023-03-03T02:34:03.832Z,105.07
2023-03-03T02:36:33.361Z,85.40
2023-03-03T02:39:05.951Z,82.90
2023-03-03T02:41:37.972Z,63.23
2023-03-03T02:44:09.048Z,69.53
2023-03-03T02:46:38.711Z,70.40
2023-03-03T02:49:08.138Z,76.33
2023-03-03T02:51:37.053Z,76.87
2023-03-03T02:54:06.416Z,61.87
2023-03-03T02:56:36.690Z,82.67
2023-03-03T02:59:05.481Z,79.07
2023-03-03T03:01:37.329Z,73.03
2023-03-03T03:04:10.908Z,78.20
2023-03-03T03:06:43.691Z,93.07
2023-03-03T03:09:13.594Z,99.40
2023-03-03T03:11:42.882Z,80.97
2023-03-03T03:14:12.985Z,85.30
2023-03-03T03:16:41.941Z,97.07
2023-03-03T03:19:09.878Z,97.53
2023-03-03T03:21:39.411Z,70.20
2023-03-03T03:24:08.956Z,90.03
2023-03-03T03:26:38.706Z,99.13
2023-03-03T03:29:08.426Z,81.90
2023-03-03T03:31:36.490Z,81.93
2023-03-03T03:34:04.708Z,95.63
2023-03-03T03:36:32.468Z,75.00
2023-03-03T03:39:02.764Z,79.77
2023-03-03T03:41:31.979Z,112.83
2023-03-03T03:43:59.894Z,80.20
2023-03-03T03:46:29.597Z,94.63
2023-03-03T03:48:57.359Z,66.43
2023-03-03T03:51:25.158Z,101.50
2023-03-03T03:53:53.442Z,85.13
2023-03-03T03:56:21.322Z,80.60
2023-03-03T03:58:52.946Z,80.87
2023-03-03T04:01:21.093Z,57.97
2023-03-03T04:03:51.623Z,82.73
2023-03-03T04:06:22.892Z,132.73
2023-03-03T04:08:51.083Z,83.17
2023-03-03T04:11:21.514Z,52.80
2023-03-03T04:13:49.479Z,63.50
2023-03-03T04:16:17.898Z,62.50
2023-03-03T04:18:46.855Z,254.00
2023-03-03T04:21:17.744Z,69.17
2023-03-03T04:23:47.861Z,120.37
2023-03-03T04:26:15.615Z,65.93
2023-03-03T04:28:46.200Z,100.40
2023-03-03T04:31:14.319Z,89.50
2023-03-03T04:33:42.243Z,78.17
2023-03-03T04:36:09.912Z,76.50
2023-03-03T04:38:40.117Z,60.67
2023-03-03T04:41:07.782Z,93.90
2023-03-03T04:43:38.569Z,97.77
2023-03-03T04:46:06.814Z,71.07
2023-03-03T04:48:35.444Z,74.87
2023-03-03T04:51:03.415Z,117.80
2023-03-03T04:53:32.536Z,82.80
2023-03-03T04:56:02.182Z,126.00
2023-03-03T04:58:30.117Z,100.33
2023-03-03T05:00:58.797Z,131.10
2023-03-03T05:03:28.994Z,83.20
2023-03-03T05:05:56.917Z,94.83
2023-03-03T05:08:24.869Z,84.20
2023-03-03T05:10:53.813Z,65.17
2023-03-03T05:13:25.289Z,92.77
2023-03-03T05:15:55.173Z,59.67
2023-03-03T05:18:23.727Z,60.77
2023-03-03T05:20:52.203Z,69.37
2023-03-03T05:23:21.048Z,73.63
2023-03-03T05:25:49.277Z,79.20
2023-03-03T05:28:18.065Z,93.57
2023-03-03T05:30:47.398Z,66.40
2023-03-03T05:33:16.389Z,79.20
2023-03-03T05:35:44.516Z,94.23
2023-03-03T05:38:12.338Z,67.43
2023-03-03T05:40:41.173Z,85.73
2023-03-03T05:43:09.045Z,85.40
2023-03-03T05:45:36.674Z,62.17
2023-03-03T05:48:06.268Z,69.03
2023-03-03T05:50:34.302Z,73.23
2023-03-03T05:53:02.020Z,71.37
2023-03-03T05:55:29.730Z,65.77
2023-03-03T05:57:57.399Z,94.00
2023-03-03T06:00:25.522Z,88.07
2023-03-03T06:02:53.279Z,109.80
2023-03-03T06:05:22.438Z,103.77
2023-03-03T06:07:50.215Z,90.27
2023-03-03T06:10:18.482Z,120.90
2023-03-03T06:12:49.821Z,84.70
2023-03-03T06:15:17.807Z,70.17
2023-03-03T06:17:46.045Z,93.67
2023-03-03T06:20:13.912Z,80.00
2023-03-03T06:22:43.163Z,91.83
2023-03-03T06:25:11.689Z,53.50
2023-03-03T06:27:39.356Z,62.93
2023-03-03T06:30:08.792Z,55.23
2023-03-03T06:32:36.730Z,71.77
2023-03-03T06:35:05.121Z,79.53
2023-03-03T06:37:32.884Z,76.70
2023-03-03T06:40:01.934Z,72.77
2023-03-03T06:42:30.116Z,53.63
2023-03-03T06:44:57.956Z,62.30
2023-03-03T06:47:25.763Z,58.43
2023-03-03T06:49:53.391Z,58.13
2023-03-03T06:52:24.115Z,92.90
2023-03-03T06:54:52.969Z,59.53
2023-03-03T06:57:27.827Z,68.80
2023-03-03T06:59:57.713Z,63.03
2023-03-03T07:02:25.485Z,59.70
2023-03-03T07:04:54.666Z,67.53
2023-03-03T07:07:24.601Z,71.60
2023-03-03T07:09:54.829Z,61.53
2023-03-03T07:12:25.129Z,73.10
2023-03-03T07:14:57.805Z,60.47
2023-03-03T07:17:26.590Z,65.93
2023-03-03T07:19:54.803Z,68.43
2023-03-03T07:22:25.651Z,51.90
2023-03-03T07:24:55.418Z,68.07
2023-03-03T07:27:26.944Z,59.93
2023-03-03T07:29:56.971Z,66.70
2023-03-03T07:32:28.440Z,48.47
2023-03-03T07:34:57.520Z,65.57
2023-03-03T07:37:32.684Z,70.00
2023-03-03T07:40:01.490Z,53.43
2023-03-03T07:42:36.139Z,56.57
2023-03-03T07:45:26.309Z,47.40
2023-03-03T07:47:58.126Z,47.57
2023-03-03T07:50:25.972Z,43.60
2023-03-03T07:52:56.705Z,56.43
2023-03-03T07:55:31.703Z,44.13
2023-03-03T07:58:16.941Z,53.77
2023-03-03T08:01:25.390Z,58.90
2023-03-03T08:03:53.893Z,40.97
2023-03-03T08:06:47.167Z,43.23
2023-03-03T08:09:37.710Z,59.43
2023-03-03T08:12:38.176Z,68.13
2023-03-03T08:15:24.836Z,61.37
2023-03-03T08:17:54.886Z,55.37
2023-03-03T08:20:42.624Z,44.40
2023-03-03T08:23:10.367Z,46.77
2023-03-03T08:25:38.054Z,50.50
2023-03-03T08:28:06.236Z,56.63
2023-03-03T08:30:35.360Z,61.97
2023-03-03T08:33:03.594Z,53.93
2023-03-03T08:35:31.347Z,74.73
2023-03-03T08:37:59.089Z,43.90
2023-03-03T08:40:26.738Z,38.30
2023-03-03T08:42:55.404Z,39.63
2023-03-03T08:45:23.349Z,48.93
2023-03-03T08:47:52.407Z,74.33
2023-03-03T08:50:20.167Z,40.30
2023-03-03T08:52:47.869Z,47.20
2023-03-03T08:55:15.825Z,38.80
2023-03-03T08:57:43.588Z,53.77
2023-03-03T09:00:13.475Z,56.40
2023-03-03T09:02:41.453Z,56.23
2023-03-03T09:05:11.970Z,47.07
2023-03-03T09:07:40.325Z,46.53
2023-03-03T09:10:10.105Z,55.87
2023-03-03T09:12:40.347Z,30.20
2023-03-03T09:15:18.887Z,57.83
2023-03-03T09:17:46.902Z,50.60
2023-03-03T09:20:33.452Z,49.07
2023-03-03T09:23:22.809Z,36.33
2023-03-03T09:25:51.403Z,57.67
2023-03-03T09:28:24.339Z,37.83
2023-03-03T09:30:53.907Z,49.90
2023-03-03T09:33:27.719Z,37.80
2023-03-03T09:36:02.504Z,52.23
2023-03-03T09:38:31.826Z,60.17
2023-03-03T09:41:30.904Z,44.47
2023-03-03T09:44:29.808Z,41.83
2023-03-03T09:47:10.772Z,39.13
2023-03-03T09:49:44.459Z,34.13
2023-03-03T09:52:22.369Z,69.17
2023-03-03T09:54:58.117Z,35.63
2023-03-03T09:57:31.591Z,35.17
2023-03-03T10:00:16.260Z,36.83
2023-03-03T10:02:56.103Z,33.90
2023-03-03T10:05:38.338Z,30.83
2023-03-03T10:08:23.244Z,32.20
2023-03-03T10:10:56.629Z,32.73
2023-03-03T10:13:36.463Z,35.45
2023-03-03T10:16:15.482Z,29.30
2023-03-03T10:18:49.529Z,32.10
2023-03-03T10:21:21.464Z,28.00
2023-03-03T10:24:00.489Z,32.67
2023-03-03T10:26:57.941Z,36.38
2023-03-03T10:29:41.264Z,32.43
2023-03-03T10:32:26.178Z,30.45
2023-03-03T10:35:15.196Z,36.38
2023-03-03T10:37:49.901Z,37.65
2023-03-03T10:40:24.032Z,35.10
2023-03-03T10:43:43.310Z,33.70
2023-03-03T10:46:25.817Z,30.20
2023-03-03T10:49:03.834Z,33.85
2023-03-03T10:51:35.362Z,29.40
2023-03-03T10:54:14.844Z,27.85
2023-03-03T10:56:53.351Z,33.88
2023-03-03T10:59:35.573Z,30.83
2023-03-03T11:02:06.842Z,30.77
2023-03-03T11:04:50.273Z,40.97
2023-03-03T11:07:23.429Z,41.10
2023-03-03T11:10:00.969Z,43.38
2023-03-03T11:12:35.998Z,36.03
2023-03-03T11:15:18.234Z,38.75
2023-03-03T11:17:56.048Z,37.03
2023-03-03T11:20:32.773Z,36.00
2023-03-03T11:23:05.355Z,36.67
2023-03-03T11:25:38.190Z,35.88
2023-03-03T11:28:18.955Z,32.42
2023-03-03T11:30:56.012Z,36.13
2023-03-03T11:33:28.837Z,32.38
2023-03-03T11:36:08.625Z,36.00
2023-03-03T11:38:56.189Z,31.50
2023-03-03T11:41:36.970Z,28.35
2023-03-03T11:44:13.208Z,33.55
2023-03-03T11:46:46.229Z,28.92
2023-03-03T11:49:19.645Z,30.85
2023-03-03T11:51:53.888Z,26.05
2023-03-03T11:54:25.303Z,28.70
2023-03-03T11:56:56.181Z,29.83
2023-03-03T11:59:40.558Z,26.38
2023-03-03T12:02:18.292Z,28.20
2023-03-03T12:04:49.895Z,26.40
2023-03-03T12:07:26.372Z,25.88
2023-03-03T12:10:04.474Z,28.77
2023-03-03T12:12:36.153Z,26.15
2023-03-03T12:15:16.000Z,27.25
2023-03-03T12:17:56.390Z,21.60
2023-03-03T12:20:27.574Z,22.20
2023-03-03T12:23:07.316Z,20.77
2023-03-03T12:25:38.423Z,21.58
2023-03-03T12:28:10.117Z,23.92
2023-03-03T12:31:12.058Z,18.55
2023-03-03T12:33:52.881Z,20.38
2023-03-03T12:36:32.448Z,21.65
2023-03-03T12:39:04.017Z,16.77
2023-03-03T12:41:36.163Z,16.65
2023-03-03T12:44:06.869Z,14.95
2023-03-03T12:46:45.807Z,13.35
2023-03-03T12:49:13.675Z,14.55
2023-03-03T12:51:51.307Z,12.95
2023-03-03T12:54:36.859Z,6.35
2023-03-03T12:57:13.444Z,9.20
2023-03-03T12:59:45.336Z,8.38
2023-03-03T13:02:36.350Z,5.80
2023-03-03T13:05:12.205Z,5.28
2023-03-03T13:07:46.095Z,3.83
2023-03-03T13:10:18.179Z,3.33
2023-03-03T13:12:51.686Z,4.53
2023-03-03T13:15:31.729Z,2.60
2023-03-03T13:18:16.602Z,3.53
2023-03-03T13:20:50.718Z,2.03
2023-03-03T13:23:27.498Z,3.15
2023-03-03T13:25:58.375Z,3.80
2023-03-03T13:28:32.125Z,2.00
2023-03-03T13:31:10.443Z,3.55
2023-03-03T13:33:40.914Z,5.72
2023-03-03T13:36:10.349Z,3.83
2023-03-03T13:38:42.483Z,4.65
2023-03-03T13:41:19.131Z,4.25
2023-03-03T13:43:49.740Z,2.50
2023-03-03T13:46:24.299Z,6.53
2023-03-03T13:49:04.166Z,8.85
2023-03-03T13:51:42.042Z,3.47
2023-03-03T13:54:17.763Z,5.20
2023-03-03T13:57:07.026Z,4.57
2023-03-03T13:59:43.360Z,2.05
2023-03-03T14:02:26.074Z,5.30
2023-03-03T14:05:00.912Z,2.75
2023-03-03T14:07:32.495Z,1.88
2023-03-03T14:10:04.876Z,4.22
2023-03-03T14:12:39.945Z,2.90
2023-03-03T14:15:17.605Z,4.15
2023-03-03T14:17:59.672Z,6.05
2023-03-03T14:20:31.946Z,2.72
2023-03-03T14:23:00.987Z,6.80
2023-03-03T14:25:59.631Z,5.95
2023-03-03T14:28:29.123Z,5.32
2023-03-03T14:30:57.902Z,7.78
2023-03-03T14:33:31.416Z,5.78
2023-03-03T14:36:13.871Z,5.25
2023-03-03T14:38:45.112Z,6.72
2023-03-03T14:41:16.945Z,7.15
2023-03-03T14:43:46.330Z,5.43
2023-03-03T14:46:36.718Z,2.88
2023-03-03T14:49:07.238Z,7.13
2023-03-03T14:51:43.834Z,3.15
2023-03-03T14:54:22.569Z,3.88
2023-03-03T14:56:59.673Z,5.63
2023-03-03T14:59:28.887Z,3.97
2023-03-03T15:02:21.828Z,5.00
2023-03-03T15:04:50.040Z,6.75
2023-03-03T15:07:32.684Z,9.57
2023-03-03T15:10:00.628Z,5.63
2023-03-03T15:12:37.017Z,7.22
2023-03-03T15:15:18.321Z,7.28
2023-03-03T15:17:56.387Z,7.18
2023-03-03T15:20:32.693Z,9.05
2023-03-03T15:23:40.961Z,9.57
2023-03-03T15:26:11.803Z,7.85
2023-03-03T15:28:51.611Z,9.43
2023-03-03T15:31:27.667Z,9.80
2023-03-03T15:34:03.702Z,12.38
2023-03-03T15:36:37.765Z,13.77
2023-03-03T15:39:14.560Z,13.07
2023-03-03T15:41:46.548Z,9.15
2023-03-03T15:44:18.034Z,12.43
2023-03-03T15:47:06.268Z,7.35
2023-03-03T15:49:57.608Z,16.95
2023-03-03T15:52:34.750Z,10.43
2023-03-03T15:55:15.847Z,13.85
2023-03-03T15:57:50.082Z,12.25
2023-03-03T16:00:38.807Z,9.40
2023-03-03T16:03:13.621Z,6.97
2023-03-03T16:05:47.418Z,13.45
2023-03-03T16:08:18.202Z,20.58
2023-03-03T16:10:57.227Z,10.82
2023-03-03T16:13:35.643Z,15.23
2023-03-03T16:16:12.624Z,10.57
2023-03-03T16:18:50.270Z,8.80
2023-03-03T16:21:24.225Z,12.35
2023-03-03T16:23:53.405Z,13.80
2023-03-03T16:26:34.893Z,12.13
2023-03-03T16:29:12.725Z,17.27
2023-03-03T16:31:44.919Z,12.80
2023-03-03T16:34:17.023Z,11.80
2023-03-03T16:36:56.113Z,11.85
2023-03-03T16:39:33.254Z,12.73
2023-03-03T16:42:05.140Z,9.30
2023-03-03T16:44:41.211Z,12.30
2023-03-03T16:47:18.871Z,10.80
2023-03-03T16:49:51.583Z,13.30
2023-03-03T16:52:24.523Z,13.43
2023-03-03T16:54:56.687Z,12.90
2023-03-03T16:57:32.505Z,11.30
2023-03-03T17:00:06.853Z,11.50
2023-03-03T17:03:10.434Z,9.10
2023-03-03T17:05:44.683Z,12.52
2023-03-03T17:08:23.120Z,14.07
2023-03-03T17:10:53.407Z,8.77
2023-03-03T17:13:34.302Z,12.15
2023-03-03T17:16:08.423Z,11.00
2023-03-03T17:18:51.283Z,9.60
2023-03-03T17:21:27.353Z,13.27
2023-03-03T17:24:02.018Z,8.50
2023-03-03T17:26:37.602Z,18.02
2023-03-03T17:29:18.417Z,20.73
2023-03-03T17:31:50.950Z,19.67
2023-03-03T17:34:36.051Z,8.75
2023-03-03T17:37:13.104Z,14.82
2023-03-03T17:39:51.807Z,15.60
2023-03-03T17:42:24.077Z,25.05
2023-03-03T17:45:01.998Z,12.77
2023-03-03T17:47:42.466Z,15.75
2023-03-03T17:50:38.327Z,9.00
2023-03-03T17:53:36.076Z,15.05
2023-03-03T17:56:17.695Z,10.43
2023-03-03T17:58:55.482Z,15.18
2023-03-03T18:01:35.281Z,13.27
2023-03-03T18:04:22.301Z,12.73
2023-03-03T18:07:08.893Z,12.73
2023-03-03T18:09:48.376Z,15.75
2023-03-03T18:12:21.347Z,13.60
2023-03-03T18:14:59.263Z,17.38
2023-03-03T18:17:36.933Z,18.65
2023-03-03T18:20:18.785Z,18.23
2023-03-03T18:22:47.404Z,26.20
2023-03-03T18:25:16.506Z,13.10
2023-03-03T18:27:45.502Z,15.50
2023-03-03T18:30:33.487Z,17.65
2023-03-03T18:33:09.293Z,14.43
2023-03-03T18:35:38.579Z,10.77
2023-03-03T18:38:30.889Z,17.48
2023-03-03T18:41:11.391Z,16.38
2023-03-03T18:43:52.061Z,16.35
2023-03-03T18:46:46.765Z,20.70
2023-03-03T18:49:16.857Z,17.23
2023-03-03T18:51:52.639Z,20.50
2023-03-03T18:54:30.972Z,16.80
2023-03-03T18:57:19.368Z,16.30
2023-03-03T18:59:55.865Z,16.67
2023-03-03T19:02:35.780Z,24.30
2023-03-03T19:05:18.854Z,26.25
2023-03-03T19:07:53.200Z,23.27
2023-03-03T19:10:48.308Z,18.55
2023-03-03T19:13:42.162Z,13.25
2023-03-03T19:16:11.466Z,19.10
2023-03-03T19:19:01.067Z,23.75
2023-03-03T19:21:32.171Z,12.23
2023-03-03T19:24:01.235Z,11.10
2023-03-03T19:26:47.989Z,17.65
2023-03-03T19:29:31.490Z,12.35
2023-03-03T19:32:07.632Z,14.27
2023-03-03T19:34:41.075Z,16.35
2023-03-03T19:37:21.180Z,16.77
2023-03-03T19:40:00.784Z,23.02
2023-03-03T19:42:44.837Z,18.30
2023-03-03T19:45:30.425Z,15.55
2023-03-03T19:48:06.027Z,21.08
2023-03-03T19:50:41.600Z,11.18
2023-03-03T19:53:18.325Z,14.30
2023-03-03T19:55:57.123Z,14.27
2023-03-03T19:58:31.370Z,17.42
2023-03-03T20:01:08.312Z,21.27
2023-03-03T20:04:09.489Z,20.95
2023-03-03T20:06:46.797Z,16.40
2023-03-03T20:09:27.934Z,14.93
2023-03-03T20:12:11.972Z,21.15
2023-03-03T20:14:54.094Z,22.67
2023-03-03T20:17:35.199Z,17.10
2023-03-03T20:20:06.980Z,23.90
2023-03-03T20:22:42.369Z,17.75
2023-03-03T20:25:24.353Z,21.45
2023-03-03T20:28:00.344Z,22.00
2023-03-03T20:30:42.245Z,23.55
2023-03-03T20:33:22.124Z,18.02
2023-03-03T20:35:56.131Z,21.92
2023-03-03T20:38:30.161Z,28.95
2023-03-03T20:41:05.368Z,24.55
2023-03-03T20:43:45.012Z,17.90
2023-03-03T20:46:20.411Z,18.60
2023-03-03T20:48:59.475Z,17.20
2023-03-03T20:51:32.021Z,17.50
2023-03-03T20:54:06.693Z,16.63
2023-03-03T20:56:39.614Z,17.67
2023-03-03T20:59:17.518Z,18.67
2023-03-03T21:01:53.089Z,17.17
2023-03-03T21:04:23.800Z,21.55
2023-03-03T21:06:52.439Z,16.17
2023-03-03T21:09:28.813Z,22.45
2023-03-03T21:11:59.063Z,24.08
2023-03-03T21:14:28.825Z,22.38
2023-03-03T21:16:58.383Z,9.52
2023-03-03T21:19:29.130Z,21.88
2023-03-03T21:21:58.305Z,15.45
2023-03-03T21:24:49.066Z,15.98
2023-03-03T21:27:29.949Z,18.05
2023-03-03T21:30:06.689Z,16.92
2023-03-03T21:32:40.348Z,17.52
2023-03-03T21:35:09.482Z,21.90
2023-03-03T21:37:47.663Z,15.18
2023-03-03T21:40:20.613Z,21.48
2023-03-03T21:42:50.189Z,17.27
2023-03-03T21:45:20.671Z,15.60
2023-03-03T21:47:48.917Z,19.27
2023-03-03T21:50:17.536Z,13.80
2023-03-03T21:52:45.345Z,17.17
2023-03-03T21:55:13.076Z,15.63
2023-03-03T21:57:40.831Z,16.17
2023-03-03T22:00:11.365Z,15.48
2023-03-03T22:02:39.162Z,14.75
2023-03-03T22:05:08.107Z,16.08
2023-03-03T22:07:36.092Z,15.00
2023-03-03T22:10:03.943Z,22.40
2023-03-03T22:12:31.595Z,15.05
2023-03-03T22:14:59.307Z,15.38
2023-03-03T22:17:28.466Z,9.98
2023-03-03T22:19:56.119Z,12.95
2023-03-03T22:22:24.412Z,8.73
2023-03-03T22:24:53.724Z,17.33
2023-03-03T22:27:21.612Z,13.43
2023-03-03T22:29:49.357Z,11.95
2023-03-03T22:32:17.056Z,12.85
2023-03-03T22:34:46.500Z,9.45
2023-03-03T22:37:14.537Z,12.82
2023-03-03T22:39:42.554Z,5.80
2023-03-03T22:42:11.055Z,9.15
2023-03-03T22:44:38.740Z,14.10
2023-03-03T22:47:06.512Z,8.85
2023-03-03T22:49:35.017Z,12.60
2023-03-03T22:52:04.469Z,10.48
2023-03-03T22:54:32.184Z,15.80
2023-03-03T22:57:00.181Z,14.70
2023-03-03T22:59:28.031Z,11.55
2023-03-03T23:01:56.105Z,19.42
2023-03-03T23:04:24.062Z,9.43
2023-03-03T23:06:51.746Z,8.75
2023-03-03T23:09:20.940Z,11.50
2023-03-03T23:11:48.660Z,10.45
2023-03-03T23:14:16.304Z,9.75
2023-03-03T23:16:45.426Z,7.63
2023-03-03T23:19:13.406Z,9.82
2023-03-03T23:21:41.143Z,9.02
2023-03-03T23:24:10.970Z,5.63
2023-03-03T23:26:40.066Z,9.45
2023-03-03T23:29:07.825Z,10.30
2023-03-03T23:31:35.546Z,6.18
2023-03-03T23:34:03.278Z,9.57
2023-03-03T23:36:30.915Z,7.05
2023-03-03T23:38:58.755Z,4.40
2023-03-03T23:41:26.866Z,9.23
2023-03-03T23:43:55.899Z,6.88
2023-03-03T23:46:23.584Z,8.70
2023-03-03T23:48:51.306Z,6.03
2023-03-03T23:51:19.048Z,8.40
2023-03-03T23:53:47.020Z,3.80
2023-03-03T23:56:14.817Z,5.18
2023-03-03T23:58:42.425Z,5.80
